createdAt,value
2019-05-28T00:01:40.150Z,3.93
2019-05-28T00:04:08.999Z,4.53
2019-05-28T00:06:37.806Z,4.90
2019-05-28T00:09:08.216Z,4.67
2019-05-28T00:11:37.166Z,4.30
2019-05-28T00:14:06.126Z,4.57
2019-05-28T00:16:34.958Z,3.80
2019-05-28T00:19:04.013Z,5.07
2019-05-28T00:21:32.799Z,4.43
2019-05-28T00:24:01.939Z,3.80
2019-05-28T00:26:31.163Z,4.90
2019-05-28T00:28:59.924Z,4.90
2019-05-28T00:31:29.043Z,4.83
2019-05-28T00:33:57.845Z,4.70
2019-05-28T00:36:26.636Z,4.70
2019-05-28T00:38:55.676Z,4.07
2019-05-28T00:41:24.514Z,3.47
2019-05-28T00:43:53.564Z,3.63
2019-05-28T00:46:22.428Z,3.27
2019-05-28T00:48:51.368Z,3.60
2019-05-28T00:51:20.343Z,4.10
2019-05-28T00:53:49.190Z,3.33
2019-05-28T00:56:18.460Z,4.07
2019-05-28T00:58:47.864Z,3.83
2019-05-28T01:01:16.688Z,4.20
2019-05-28T01:03:45.445Z,4.73
2019-05-28T01:06:14.231Z,4.80
2019-05-28T01:08:43.003Z,3.90
2019-05-28T01:11:12.094Z,4.80
2019-05-28T01:13:41.179Z,4.37
2019-05-28T01:16:09.982Z,3.80
2019-05-28T01:18:38.736Z,4.70
2019-05-28T01:21:07.546Z,4.73
2019-05-28T01:23:36.313Z,5.13
2019-05-28T01:26:05.446Z,4.43
2019-05-28T01:28:34.198Z,4.70
2019-05-28T01:31:03.477Z,4.30
2019-05-28T01:33:32.234Z,4.60
2019-05-28T01:36:01.343Z,4.73
2019-05-28T01:38:30.099Z,4.73
2019-05-28T01:40:58.897Z,4.83
2019-05-28T01:43:27.726Z,4.47
2019-05-28T01:45:56.912Z,4.63
2019-05-28T01:48:25.711Z,5.13
2019-05-28T01:50:54.594Z,4.60
2019-05-28T01:53:23.420Z,5.87
2019-05-28T01:55:52.472Z,6.80
2019-05-28T01:58:21.264Z,6.37
2019-05-28T02:00:50.216Z,7.60
2019-05-28T02:03:19.333Z,8.67
2019-05-28T02:05:48.127Z,7.30
2019-05-28T02:08:16.907Z,6.60
2019-05-28T02:10:45.764Z,6.83
2019-05-28T02:13:14.697Z,7.90
2019-05-28T02:15:43.468Z,6.77
2019-05-28T02:18:12.243Z,6.77
2019-05-28T02:20:41.040Z,7.00
2019-05-28T02:23:09.820Z,7.77
2019-05-28T02:25:38.595Z,7.60
2019-05-28T02:28:07.368Z,8.87
2019-05-28T02:30:36.132Z,7.10
2019-05-28T02:33:05.006Z,7.73
2019-05-28T02:35:34.184Z,7.30
2019-05-28T02:38:03.019Z,7.00
2019-05-28T02:40:32.198Z,6.43
2019-05-28T02:43:00.972Z,6.63
2019-05-28T02:45:29.824Z,7.37
2019-05-28T02:47:58.981Z,7.10
2019-05-28T02:51:02.023Z,5.10
2019-05-28T02:53:32.041Z,5.60
2019-05-28T02:56:01.195Z,5.30
2019-05-28T02:58:35.815Z,4.90
2019-05-28T03:01:07.013Z,5.80
2019-05-28T03:03:35.939Z,5.07
2019-05-28T03:06:07.096Z,5.50
2019-05-28T03:08:36.043Z,4.80
2019-05-28T03:11:05.021Z,4.90
2019-05-28T03:13:34.087Z,4.60
2019-05-28T03:16:04.831Z,4.50
2019-05-28T03:18:38.129Z,5.20
2019-05-28T03:21:08.456Z,5.00
2019-05-28T03:23:38.902Z,4.53
2019-05-28T03:26:07.951Z,4.50
2019-05-28T03:28:37.469Z,4.30
2019-05-28T03:31:06.372Z,4.80
2019-05-28T03:33:35.245Z,4.20
2019-05-28T03:36:06.109Z,5.07
2019-05-28T03:38:37.172Z,5.20
2019-05-28T03:41:06.015Z,4.70
2019-05-28T03:43:34.945Z,4.60
2019-05-28T03:46:04.095Z,4.47
2019-05-28T03:48:33.325Z,4.70
2019-05-28T03:51:02.369Z,5.10
2019-05-28T03:53:31.159Z,4.53
2019-05-28T03:55:59.943Z,4.13
2019-05-28T03:58:28.748Z,5.00
2019-05-28T04:00:57.525Z,4.77
2019-05-28T04:03:27.572Z,4.87
2019-05-28T04:05:56.394Z,4.30
2019-05-28T04:08:25.176Z,4.80
2019-05-28T04:10:53.938Z,5.73
2019-05-28T04:13:23.244Z,6.73
2019-05-28T04:15:51.996Z,5.80
2019-05-28T04:18:21.039Z,5.03
2019-05-28T04:20:49.887Z,5.50
2019-05-28T04:23:18.881Z,5.13
2019-05-28T04:25:47.732Z,4.50
2019-05-28T04:28:16.825Z,5.07
2019-05-28T04:30:45.757Z,4.13
2019-05-28T04:33:14.548Z,4.80
2019-05-28T04:35:43.458Z,5.20
2019-05-28T04:38:12.343Z,4.47
2019-05-28T04:40:41.165Z,5.20
2019-05-28T04:43:09.949Z,4.37
2019-05-28T04:45:38.759Z,5.53
2019-05-28T04:48:07.645Z,5.50
2019-05-28T04:50:36.411Z,5.00
2019-05-28T04:53:05.857Z,5.40
2019-05-28T04:55:35.040Z,5.03
2019-05-28T04:58:03.920Z,4.10
2019-05-28T05:00:33.075Z,4.80
2019-05-28T05:03:01.881Z,4.30
2019-05-28T05:05:30.694Z,4.60
2019-05-28T05:07:59.460Z,4.70
2019-05-28T05:10:28.224Z,5.90
2019-05-28T05:12:57.025Z,4.67
2019-05-28T05:15:26.077Z,5.60
2019-05-28T05:18:14.212Z,4.77
2019-05-28T05:20:42.987Z,4.83
2019-05-28T05:23:11.808Z,5.10
2019-05-28T05:25:40.663Z,5.00
2019-05-28T05:28:09.434Z,4.67
2019-05-28T05:30:38.196Z,4.80
2019-05-28T05:33:19.746Z,4.17
2019-05-28T05:35:37.556Z,4.20
2019-05-28T05:38:06.401Z,4.67
2019-05-28T05:40:35.160Z,4.00
2019-05-28T05:43:03.939Z,4.53
2019-05-28T05:45:32.721Z,4.87
2019-05-28T05:48:01.862Z,3.83
2019-05-28T05:50:30.636Z,4.40
2019-05-28T05:52:59.519Z,5.10
2019-05-28T05:55:28.281Z,4.40
2019-05-28T05:57:57.076Z,4.50
2019-05-28T06:00:25.921Z,4.90
2019-05-28T06:02:55.607Z,5.03
2019-05-28T06:05:24.384Z,4.63
2019-05-28T06:07:53.195Z,3.83
2019-05-28T06:10:22.196Z,4.27
2019-05-28T06:12:51.252Z,4.17
2019-05-28T06:15:20.053Z,4.37
2019-05-28T06:17:49.162Z,8.63
2019-05-28T06:20:19.844Z,8.10
2019-05-28T06:22:48.691Z,7.80
2019-05-28T06:25:18.513Z,5.47
2019-05-28T06:27:47.355Z,5.27
2019-05-28T06:30:16.716Z,5.33
2019-05-28T06:32:45.590Z,5.30
2019-05-28T06:35:14.896Z,6.20
2019-05-28T06:37:44.039Z,5.07
2019-05-28T06:40:13.241Z,6.40
2019-05-28T06:42:42.173Z,5.57
2019-05-28T06:45:11.610Z,5.20
2019-05-28T06:47:44.939Z,5.60
2019-05-28T06:50:12.704Z,5.20
2019-05-28T06:52:41.858Z,5.90
2019-05-28T06:55:11.373Z,5.87
2019-05-28T06:57:40.830Z,6.47
2019-05-28T07:00:10.220Z,7.80
2019-05-28T07:02:39.059Z,6.23
2019-05-28T07:05:08.500Z,6.90
2019-05-28T07:07:37.261Z,6.40
2019-05-28T07:10:06.400Z,5.97
2019-05-28T07:12:35.254Z,7.13
2019-05-28T07:15:04.490Z,7.10
2019-05-28T07:17:33.672Z,6.93
2019-05-28T07:20:02.557Z,6.83
2019-05-28T07:22:31.651Z,8.00
2019-05-28T07:25:00.460Z,8.27
2019-05-28T07:27:30.144Z,7.90
2019-05-28T07:29:59.016Z,6.20
2019-05-28T07:32:28.126Z,6.40
2019-05-28T07:34:57.131Z,6.67
2019-05-28T07:37:26.641Z,5.53
2019-05-28T07:39:55.778Z,6.50
2019-05-28T07:42:32.886Z,6.10
2019-05-28T07:44:56.399Z,5.30
2019-05-28T07:47:25.201Z,5.60
2019-05-28T07:49:53.994Z,6.07
2019-05-28T07:52:23.040Z,6.13
2019-05-28T07:54:53.889Z,6.80
2019-05-28T07:57:22.710Z,5.73
2019-05-28T07:59:51.842Z,5.03
2019-05-28T08:02:20.696Z,5.83
2019-05-28T08:04:49.857Z,5.60
2019-05-28T08:07:18.835Z,4.33
2019-05-28T08:09:47.993Z,6.10
2019-05-28T08:12:16.782Z,6.60
2019-05-28T08:14:45.575Z,6.40
2019-05-28T08:17:14.353Z,5.70
2019-05-28T08:19:43.295Z,5.70
2019-05-28T08:22:13.718Z,6.10
2019-05-28T08:24:42.726Z,5.13
2019-05-28T08:27:11.600Z,6.17
2019-05-28T08:29:40.382Z,6.50
2019-05-28T08:32:09.244Z,4.90
2019-05-28T08:34:38.433Z,5.57
2019-05-28T08:37:07.831Z,5.17
2019-05-28T08:39:36.713Z,5.37
2019-05-28T08:42:06.045Z,4.93
2019-05-28T08:44:35.102Z,5.80
2019-05-28T08:47:04.057Z,5.33
2019-05-28T08:49:32.839Z,5.73
2019-05-28T08:52:01.893Z,5.30
2019-05-28T08:54:31.188Z,6.13
2019-05-28T08:56:59.996Z,6.60
2019-05-28T08:59:48.110Z,7.90
2019-05-28T09:02:28.110Z,6.30
2019-05-28T09:04:47.868Z,7.00
2019-05-28T09:07:16.740Z,5.50
2019-05-28T09:09:45.596Z,6.17
2019-05-28T09:12:14.731Z,5.00
2019-05-28T09:14:55.630Z,5.60
2019-05-28T09:17:14.103Z,7.00
2019-05-28T09:19:42.858Z,6.77
2019-05-28T09:22:24.652Z,5.77
2019-05-28T09:24:42.883Z,6.53
2019-05-28T09:27:11.665Z,5.83
2019-05-28T09:29:40.445Z,5.53
2019-05-28T09:32:09.569Z,6.83
2019-05-28T09:34:38.645Z,6.00
2019-05-28T09:37:07.445Z,8.53
2019-05-28T09:39:36.307Z,7.67
2019-05-28T09:42:05.261Z,8.30
2019-05-28T09:44:34.321Z,5.30
2019-05-28T09:47:03.158Z,6.00
2019-05-28T09:49:31.939Z,5.63
2019-05-28T09:52:00.815Z,5.30
2019-05-28T09:54:29.722Z,5.20
2019-05-28T09:56:58.594Z,6.57
2019-05-28T09:59:40.546Z,6.93
2019-05-28T10:01:58.224Z,6.13
2019-05-28T10:04:46.416Z,7.57
2019-05-28T10:06:58.109Z,6.87
2019-05-28T10:09:27.217Z,7.53
2019-05-28T10:11:56.144Z,9.23
2019-05-28T10:14:26.247Z,8.20
2019-05-28T10:16:55.058Z,8.53
2019-05-28T10:19:24.184Z,8.63
2019-05-28T10:21:53.135Z,7.60
2019-05-28T10:24:21.928Z,8.67
2019-05-28T10:26:50.748Z,8.30
2019-05-28T10:29:20.475Z,7.43
2019-05-28T10:31:49.621Z,7.97
2019-05-28T10:34:18.448Z,7.10
2019-05-28T10:36:47.591Z,7.00
2019-05-28T10:39:16.796Z,6.87
2019-05-28T10:41:45.657Z,6.73
2019-05-28T10:44:14.437Z,6.20
2019-05-28T10:46:43.949Z,7.00
2019-05-28T10:49:12.755Z,7.00
2019-05-28T10:51:41.919Z,6.13
2019-05-28T10:54:11.014Z,6.10
2019-05-28T10:56:40.701Z,5.47
2019-05-28T10:59:12.509Z,5.87
2019-05-28T11:01:41.781Z,5.13
2019-05-28T11:04:10.639Z,5.43
2019-05-28T11:06:51.450Z,5.90
2019-05-28T11:09:11.392Z,5.20
2019-05-28T11:11:40.727Z,5.60
2019-05-28T11:14:09.653Z,6.00
2019-05-28T11:16:38.580Z,5.97
2019-05-28T11:19:07.816Z,5.13
2019-05-28T11:21:36.848Z,5.20
2019-05-28T11:24:06.054Z,4.67
2019-05-28T11:26:34.972Z,4.60
2019-05-28T11:29:04.175Z,4.83
2019-05-28T11:31:32.964Z,4.43
2019-05-28T11:34:01.761Z,5.43
2019-05-28T11:36:30.576Z,6.53
2019-05-28T11:38:59.688Z,4.40
2019-05-28T11:41:41.498Z,4.63
2019-05-28T11:43:58.987Z,6.30
2019-05-28T11:46:28.122Z,5.90
2019-05-28T11:48:57.270Z,5.37
2019-05-28T11:51:26.056Z,5.90
2019-05-28T11:53:54.903Z,4.07
2019-05-28T11:56:23.700Z,4.20
2019-05-28T11:58:52.545Z,5.83
2019-05-28T12:01:33.992Z,4.87
2019-05-28T12:03:52.069Z,6.00
2019-05-28T12:06:20.836Z,4.50
2019-05-28T12:08:49.622Z,7.43
2019-05-28T12:11:18.782Z,8.93
2019-05-28T12:13:47.585Z,9.37
2019-05-28T12:16:16.839Z,9.33
2019-05-28T12:18:46.118Z,7.43
2019-05-28T12:21:14.906Z,7.70
2019-05-28T12:23:43.708Z,8.13
2019-05-28T12:26:12.476Z,7.10
2019-05-28T12:28:41.289Z,7.47
2019-05-28T12:31:10.081Z,10.40
2019-05-28T12:33:38.882Z,9.90
2019-05-28T12:36:10.005Z,8.10
2019-05-28T12:38:38.952Z,8.63
2019-05-28T12:41:08.071Z,8.03
2019-05-28T12:43:36.990Z,7.77
2019-05-28T12:46:05.762Z,7.43
2019-05-28T12:48:34.999Z,8.50
2019-05-28T12:51:03.903Z,6.93
2019-05-28T12:53:49.505Z,7.83
2019-05-28T12:56:03.596Z,7.27
2019-05-28T12:58:42.420Z,7.60
2019-05-28T13:01:04.315Z,6.57
2019-05-28T13:03:33.353Z,7.73
2019-05-28T13:06:02.251Z,6.50
2019-05-28T13:08:31.433Z,6.70
2019-05-28T13:11:00.785Z,6.17
2019-05-28T13:13:29.565Z,5.50
2019-05-28T13:15:58.712Z,5.87
2019-05-28T13:18:28.755Z,5.73
2019-05-28T13:20:57.601Z,4.40
2019-05-28T13:23:26.452Z,4.50
2019-05-28T13:25:55.226Z,4.77
2019-05-28T13:28:24.536Z,5.07
2019-05-28T13:30:53.320Z,4.53
2019-05-28T13:33:22.412Z,5.33
2019-05-28T13:35:52.837Z,4.87
2019-05-28T13:38:26.969Z,4.80
2019-05-28T13:40:52.217Z,4.17
2019-05-28T13:43:21.010Z,4.67
2019-05-28T13:45:50.392Z,4.30
2019-05-28T13:48:19.189Z,4.17
2019-05-28T13:50:48.340Z,3.17
2019-05-28T13:53:17.181Z,5.47
2019-05-28T13:55:45.960Z,4.33
2019-05-28T13:58:14.746Z,4.73
2019-05-28T14:00:43.599Z,4.27
2019-05-28T14:03:12.512Z,4.27
2019-05-28T14:05:41.416Z,4.57
2019-05-28T14:08:10.802Z,4.67
2019-05-28T14:10:39.635Z,4.33
2019-05-28T14:13:08.429Z,4.33
2019-05-28T14:15:37.352Z,4.07
2019-05-28T14:18:06.240Z,3.60
2019-05-28T14:20:35.003Z,4.37
2019-05-28T14:23:03.940Z,3.73
2019-05-28T14:25:32.870Z,3.50
2019-05-28T14:28:02.094Z,3.37
2019-05-28T14:30:31.423Z,3.47
2019-05-28T14:33:00.388Z,3.60
2019-05-28T14:35:29.177Z,3.17
2019-05-28T14:37:57.967Z,4.30
2019-05-28T14:40:27.285Z,3.50
2019-05-28T14:42:56.098Z,5.60
2019-05-28T14:45:26.516Z,6.63
2019-05-28T14:47:56.341Z,7.83
2019-05-28T14:50:25.206Z,11.00
2019-05-28T14:52:53.971Z,10.03
2019-05-28T14:55:22.771Z,10.23
2019-05-28T14:57:51.656Z,13.80
2019-05-28T15:00:22.964Z,13.27
2019-05-28T15:02:51.980Z,15.60
2019-05-28T15:05:21.161Z,17.53
2019-05-28T15:07:50.241Z,11.30
2019-05-28T15:10:19.624Z,11.30
2019-05-28T15:12:50.636Z,9.63
2019-05-28T15:15:34.453Z,9.03
2019-05-28T15:17:51.595Z,7.67
2019-05-28T15:20:20.637Z,8.73
2019-05-28T15:22:51.378Z,7.63
2019-05-28T15:25:20.309Z,6.27
2019-05-28T15:27:49.128Z,7.83
2019-05-28T15:30:19.304Z,7.60
2019-05-28T15:32:49.456Z,6.97
2019-05-28T15:35:19.206Z,9.70
2019-05-28T15:37:48.356Z,10.67
2019-05-28T15:40:17.699Z,10.60
2019-05-28T15:43:04.627Z,11.90
2019-05-28T15:45:20.309Z,9.60
2019-05-28T15:47:48.672Z,9.53
2019-05-28T15:50:19.457Z,10.10
2019-05-28T15:52:47.924Z,8.90
2019-05-28T15:55:16.889Z,9.33
2019-05-28T15:57:45.972Z,10.20
2019-05-28T16:00:19.121Z,10.23
2019-05-28T16:02:48.690Z,8.47
2019-05-28T16:05:17.151Z,8.47
2019-05-28T16:07:46.443Z,7.90
2019-05-28T16:10:16.123Z,7.67
2019-05-28T16:12:46.557Z,8.10
2019-05-28T16:15:17.305Z,9.30
2019-05-28T16:17:46.713Z,7.60
2019-05-28T16:20:16.872Z,9.00
2019-05-28T16:22:45.733Z,8.30
2019-05-28T16:25:14.799Z,8.20
2019-05-28T16:27:46.328Z,7.03
2019-05-28T16:30:15.978Z,8.00
2019-05-28T16:32:48.036Z,7.50
2019-05-28T16:35:20.850Z,6.57
2019-05-28T16:37:49.675Z,6.13
2019-05-28T16:40:20.169Z,5.47
2019-05-28T16:42:49.110Z,5.30
2019-05-28T16:45:18.737Z,5.57
2019-05-28T16:47:47.893Z,5.83
2019-05-28T16:50:16.968Z,6.60
2019-05-28T16:52:45.786Z,5.70
2019-05-28T16:55:16.038Z,5.43
2019-05-28T16:57:45.234Z,6.27
2019-05-28T17:00:16.091Z,6.30
2019-05-28T17:02:45.299Z,6.20
2019-05-28T17:05:15.503Z,4.77
2019-05-28T17:07:44.358Z,4.53
2019-05-28T17:10:30.929Z,5.53
2019-05-28T17:12:44.208Z,4.50
2019-05-28T17:15:13.412Z,4.37
2019-05-28T17:17:42.489Z,5.10
2019-05-28T17:20:11.937Z,3.87
2019-05-28T17:22:40.773Z,3.63
2019-05-28T17:25:12.242Z,4.27
2019-05-28T17:27:41.342Z,3.83
2019-05-28T17:30:20.656Z,3.63
2019-05-28T17:32:41.915Z,4.30
2019-05-28T17:35:11.782Z,4.10
2019-05-28T17:37:40.649Z,3.83
2019-05-28T17:40:10.257Z,3.70
2019-05-28T17:42:39.921Z,3.60
2019-05-28T17:45:09.080Z,3.53
2019-05-28T17:47:43.491Z,3.60
2019-05-28T17:50:09.171Z,3.17
2019-05-28T17:52:38.093Z,3.03
2019-05-28T17:55:07.112Z,3.50
2019-05-28T17:57:35.928Z,4.73
2019-05-28T18:00:05.253Z,3.50
2019-05-28T18:02:34.580Z,3.80
2019-05-28T18:05:03.584Z,3.50
2019-05-28T18:07:32.605Z,3.53
2019-05-28T18:10:01.468Z,3.80
2019-05-28T18:12:30.501Z,3.30
2019-05-28T18:14:59.438Z,3.60
2019-05-28T18:17:28.266Z,3.73
2019-05-28T18:19:57.953Z,4.40
2019-05-28T18:22:26.961Z,4.47
2019-05-28T18:24:56.456Z,4.07
2019-05-28T18:27:25.884Z,3.90
2019-05-28T18:29:54.954Z,4.37
2019-05-28T18:32:23.979Z,4.23
2019-05-28T18:34:52.932Z,3.33
2019-05-28T18:37:21.884Z,5.40
2019-05-28T18:39:51.103Z,4.00
2019-05-28T18:42:20.186Z,3.80
2019-05-28T18:44:49.123Z,3.53
2019-05-28T18:47:18.145Z,3.60
2019-05-28T18:49:47.275Z,4.47
2019-05-28T18:52:16.911Z,4.73
2019-05-28T18:54:45.806Z,5.20
2019-05-28T18:57:14.975Z,3.63
2019-05-28T18:59:44.187Z,3.90
2019-05-28T19:02:13.160Z,5.20
2019-05-28T19:04:43.010Z,4.50
2019-05-28T19:07:11.788Z,3.63
2019-05-28T19:09:40.637Z,4.27
2019-05-28T19:12:09.761Z,4.23
2019-05-28T19:14:38.665Z,3.40
2019-05-28T19:17:07.441Z,3.40
2019-05-28T19:19:36.389Z,4.87
2019-05-28T19:22:05.509Z,4.80
2019-05-28T19:24:34.368Z,4.97
2019-05-28T19:27:03.233Z,5.17
2019-05-28T19:29:32.476Z,5.20
2019-05-28T19:32:02.034Z,4.90
2019-05-28T19:34:30.972Z,4.57
2019-05-28T19:37:01.677Z,4.60
2019-05-28T19:39:30.671Z,5.00
2019-05-28T19:41:59.535Z,4.70
2019-05-28T19:44:28.703Z,4.30
2019-05-28T19:46:57.538Z,4.50
2019-05-28T19:49:26.407Z,4.43
2019-05-28T19:51:55.618Z,6.00
2019-05-28T19:54:24.382Z,5.00
2019-05-28T19:56:53.624Z,5.17
2019-05-28T19:59:22.578Z,5.07
2019-05-28T20:01:51.449Z,5.37
2019-05-28T20:04:20.275Z,5.63
2019-05-28T20:06:49.057Z,5.53
2019-05-28T20:09:18.168Z,5.87
2019-05-28T20:11:46.983Z,5.67
2019-05-28T20:14:15.763Z,5.30
2019-05-28T20:16:45.379Z,5.43
2019-05-28T20:19:14.866Z,5.87
2019-05-28T20:21:43.746Z,5.63
2019-05-28T20:24:12.523Z,5.20
2019-05-28T20:26:41.863Z,4.67
2019-05-28T20:29:11.061Z,5.10
2019-05-28T20:31:40.225Z,7.43
2019-05-28T20:34:09.424Z,5.77
2019-05-28T20:36:38.287Z,6.47
2019-05-28T20:39:07.799Z,6.03
2019-05-28T20:41:37.357Z,6.60
2019-05-28T20:44:06.659Z,6.30
2019-05-28T20:46:35.526Z,5.87
2019-05-28T20:49:04.688Z,5.90
2019-05-28T20:51:34.149Z,6.30
2019-05-28T20:54:03.244Z,6.90
2019-05-28T20:56:32.098Z,6.70
2019-05-28T20:59:01.461Z,6.57
2019-05-28T21:01:30.460Z,7.33
2019-05-28T21:03:59.636Z,6.20
2019-05-28T21:06:28.532Z,6.00
2019-05-28T21:08:58.306Z,5.90
2019-05-28T21:11:27.226Z,6.00
2019-05-28T21:13:56.837Z,6.37
2019-05-28T21:16:25.743Z,7.20
2019-05-28T21:18:55.233Z,7.47
2019-05-28T21:21:24.548Z,6.97
2019-05-28T21:23:54.057Z,7.10
2019-05-28T21:26:23.186Z,6.70
2019-05-28T21:28:52.141Z,6.40
2019-05-28T21:31:21.440Z,6.57
2019-05-28T21:33:50.705Z,6.20
2019-05-28T21:36:20.345Z,6.67
2019-05-28T21:38:49.557Z,5.80
2019-05-28T21:41:18.355Z,5.20
2019-05-28T21:43:47.542Z,5.97
2019-05-28T21:46:16.403Z,4.93
2019-05-28T21:48:45.625Z,5.70
2019-05-28T21:51:15.364Z,4.63
2019-05-28T21:53:44.331Z,5.13
2019-05-28T21:56:13.193Z,3.73
2019-05-28T21:58:41.953Z,4.03
2019-05-28T22:01:13.433Z,3.73
2019-05-28T22:03:41.846Z,3.73
2019-05-28T22:06:10.546Z,3.07
2019-05-28T22:08:38.901Z,3.30
2019-05-28T22:11:07.973Z,2.80
2019-05-28T22:13:38.152Z,2.90
2019-05-28T22:16:06.484Z,3.00
2019-05-28T22:18:35.191Z,2.70
2019-05-28T22:21:04.512Z,2.10
2019-05-28T22:23:33.288Z,2.10
2019-05-28T22:26:02.666Z,2.63
2019-05-28T22:28:31.239Z,2.77
2019-05-28T22:30:59.733Z,3.17
2019-05-28T22:33:28.109Z,2.60
2019-05-28T22:35:57.050Z,2.30
2019-05-28T22:38:25.933Z,2.73
2019-05-28T22:40:54.300Z,2.77
2019-05-28T22:43:31.195Z,2.30
2019-05-28T22:45:53.125Z,2.20
2019-05-28T22:48:21.643Z,2.80
2019-05-28T22:50:50.048Z,2.50
2019-05-28T22:53:18.410Z,2.83
2019-05-28T22:55:47.049Z,1.90
2019-05-28T22:58:15.515Z,2.30
2019-05-28T23:00:43.950Z,2.70
2019-05-28T23:03:12.614Z,2.60
2019-05-28T23:05:41.320Z,2.60
2019-05-28T23:08:10.033Z,2.80
2019-05-28T23:10:38.696Z,3.10
2019-05-28T23:13:07.166Z,3.17
2019-05-28T23:15:35.937Z,2.83
2019-05-28T23:18:04.518Z,3.20
2019-05-28T23:20:32.932Z,2.60
2019-05-28T23:23:01.556Z,2.67
2019-05-28T23:25:30.242Z,2.80
2019-05-28T23:27:58.581Z,2.67
2019-05-28T23:30:26.942Z,2.60
2019-05-28T23:32:55.944Z,3.07
2019-05-28T23:35:24.315Z,2.57
2019-05-28T23:37:53.056Z,3.50
2019-05-28T23:40:22.297Z,2.70
2019-05-28T23:42:50.632Z,3.50
2019-05-28T23:45:19.771Z,2.90
2019-05-28T23:47:48.125Z,3.30
2019-05-28T23:50:18.293Z,3.40
2019-05-28T23:52:47.171Z,3.57
2019-05-28T23:55:15.761Z,3.00
2019-05-28T23:57:44.119Z,2.20
